sensor_id;sensor_type;location;lat;lon;timestamp;P1;durP1;ratioP1;P2;durP2;ratioP2
73264;SDS011;61493;51.008;14.088;2023-03-14T00:02:05;5.55;;;2.70;;
73264;SDS011;61493;51.008;14.088;2023-03-14T00:04:30;5.50;;;2.53;;
73264;SDS011;61493;51.008;14.088;2023-03-14T00:06:55;5.10;;;3.42;;
73264;SDS011;61493;51.008;14.088;2023-03-14T00:09:21;4.40;;;2.45;;
73264;SDS011;61493;51.008;14.088;2023-03-14T00:11:46;8.77;;;3.30;;
73264;SDS011;61493;51.008;14.088;2023-03-14T00:14:14;5.28;;;2.60;;
73264;SDS011;61493;51.008;14.088;2023-03-14T00:16:41;3.70;;;2.47;;
73264;SDS011;61493;51.008;14.088;2023-03-14T00:19:07;4.28;;;2.28;;
73264;SDS011;61493;51.008;14.088;2023-03-14T00:21:33;4.18;;;2.65;;
73264;SDS011;61493;51.008;14.088;2023-03-14T00:23:58;3.54;;;2.20;;
73264;SDS011;61493;51.008;14.088;2023-03-14T00:26:23;4.45;;;2.47;;
73264;SDS011;61493;51.008;14.088;2023-03-14T00:28:52;4.90;;;2.70;;
73264;SDS011;61493;51.008;14.088;2023-03-14T00:31:17;5.40;;;2.58;;
73264;SDS011;61493;51.008;14.088;2023-03-14T00:33:44;4.43;;;2.78;;
73264;SDS011;61493;51.008;14.088;2023-03-14T00:36:10;5.85;;;3.13;;
73264;SDS011;61493;51.008;14.088;2023-03-14T00:38:36;7.30;;;4.60;;
73264;SDS011;61493;51.008;14.088;2023-03-14T00:41:05;7.18;;;3.70;;
73264;SDS011;61493;51.008;14.088;2023-03-14T00:43:30;8.68;;;4.18;;
73264;SDS011;61493;51.008;14.088;2023-03-14T00:45:55;6.03;;;3.67;;
73264;SDS011;61493;51.008;14.088;2023-03-14T00:48:22;6.30;;;3.92;;
73264;SDS011;61493;51.008;14.088;2023-03-14T00:50:47;9.50;;;4.22;;
73264;SDS011;61493;51.008;14.088;2023-03-14T00:53:12;6.80;;;4.03;;
73264;SDS011;61493;51.008;14.088;2023-03-14T00:55:38;6.63;;;4.03;;
73264;SDS011;61493;51.008;14.088;2023-03-14T00:58:03;8.32;;;4.47;;
73264;SDS011;61493;51.008;14.088;2023-03-14T01:00:29;6.50;;;4.00;;
73264;SDS011;61493;51.008;14.088;2023-03-14T01:02:54;7.63;;;4.85;;
73264;SDS011;61493;51.008;14.088;2023-03-14T01:05:22;8.30;;;4.97;;
73264;SDS011;61493;51.008;14.088;2023-03-14T01:07:47;9.43;;;5.75;;
73264;SDS011;61493;51.008;14.088;2023-03-14T01:10:13;10.05;;;5.72;;
73264;SDS011;61493;51.008;14.088;2023-03-14T01:12:38;8.60;;;5.53;;
73264;SDS011;61493;51.008;14.088;2023-03-14T01:15:03;12.00;;;5.40;;
73264;SDS011;61493;51.008;14.088;2023-03-14T01:17:28;8.40;;;4.80;;
73264;SDS011;61493;51.008;14.088;2023-03-14T01:19:53;9.23;;;4.18;;
73264;SDS011;61493;51.008;14.088;2023-03-14T01:22:19;6.30;;;4.32;;
73264;SDS011;61493;51.008;14.088;2023-03-14T01:24:46;7.68;;;4.90;;
73264;SDS011;61493;51.008;14.088;2023-03-14T01:27:12;8.35;;;4.95;;
73264;SDS011;61493;51.008;14.088;2023-03-14T01:29:37;11.07;;;5.50;;
73264;SDS011;61493;51.008;14.088;2023-03-14T01:32:03;8.60;;;4.88;;
73264;SDS011;61493;51.008;14.088;2023-03-14T01:34:28;7.30;;;4.20;;
73264;SDS011;61493;51.008;14.088;2023-03-14T01:36:53;7.10;;;4.47;;
73264;SDS011;61493;51.008;14.088;2023-03-14T01:39:20;6.68;;;3.47;;
73264;SDS011;61493;51.008;14.088;2023-03-14T01:41:48;5.28;;;3.20;;
73264;SDS011;61493;51.008;14.088;2023-03-14T01:44:13;7.80;;;3.72;;
73264;SDS011;61493;51.008;14.088;2023-03-14T01:46:40;7.88;;;4.13;;
73264;SDS011;61493;51.008;14.088;2023-03-14T01:51:54;6.43;;;3.50;;
73264;SDS011;61493;51.008;14.088;2023-03-14T01:54:29;4.70;;;3.22;;
73264;SDS011;61493;51.008;14.088;2023-03-14T01:56:57;4.38;;;2.60;;
73264;SDS011;61493;51.008;14.088;2023-03-14T01:59:23;6.65;;;2.83;;
73264;SDS011;61493;51.008;14.088;2023-03-14T02:01:49;5.97;;;3.25;;
73264;SDS011;61493;51.008;14.088;2023-03-14T02:04:15;5.10;;;2.55;;
73264;SDS011;61493;51.008;14.088;2023-03-14T02:06:47;5.07;;;2.35;;
73264;SDS011;61493;51.008;14.088;2023-03-14T02:09:14;4.00;;;2.55;;
73264;SDS011;61493;51.008;14.088;2023-03-14T02:11:40;5.40;;;3.20;;
73264;SDS011;61493;51.008;14.088;2023-03-14T02:14:08;4.28;;;2.28;;
73264;SDS011;61493;51.008;14.088;2023-03-14T02:16:38;4.17;;;2.57;;
73264;SDS011;61493;51.008;14.088;2023-03-14T02:19:03;3.20;;;1.92;;
73264;SDS011;61493;51.008;14.088;2023-03-14T02:24:23;3.00;;;2.22;;
73264;SDS011;61493;51.008;14.088;2023-03-14T02:27:07;4.60;;;2.58;;
73264;SDS011;61493;51.008;14.088;2023-03-14T02:29:33;3.17;;;1.52;;
73264;SDS011;61493;51.008;14.088;2023-03-14T02:32:00;3.33;;;1.90;;
73264;SDS011;61493;51.008;14.088;2023-03-14T02:34:25;3.80;;;2.08;;
73264;SDS011;61493;51.008;14.088;2023-03-14T02:36:51;4.53;;;1.80;;
73264;SDS011;61493;51.008;14.088;2023-03-14T02:39:21;3.00;;;1.65;;
73264;SDS011;61493;51.008;14.088;2023-03-14T02:41:49;1.90;;;1.30;;
73264;SDS011;61493;51.008;14.088;2023-03-14T02:44:14;5.43;;;1.40;;
73264;SDS011;61493;51.008;14.088;2023-03-14T02:46:41;2.17;;;1.30;;
73264;SDS011;61493;51.008;14.088;2023-03-14T02:49:08;3.10;;;1.30;;
73264;SDS011;61493;51.008;14.088;2023-03-14T02:51:38;1.98;;;1.15;;
73264;SDS011;61493;51.008;14.088;2023-03-14T02:54:04;1.60;;;1.05;;
73264;SDS011;61493;51.008;14.088;2023-03-14T02:56:29;2.08;;;1.20;;
73264;SDS011;61493;51.008;14.088;2023-03-14T02:58:55;1.77;;;1.02;;
73264;SDS011;61493;51.008;14.088;2023-03-14T03:01:22;1.77;;;1.10;;
73264;SDS011;61493;51.008;14.088;2023-03-14T03:03:47;2.40;;;1.20;;
73264;SDS011;61493;51.008;14.088;2023-03-14T03:06:12;1.55;;;0.98;;
73264;SDS011;61493;51.008;14.088;2023-03-14T03:08:38;1.90;;;1.13;;
73264;SDS011;61493;51.008;14.088;2023-03-14T03:11:04;1.95;;;0.95;;
73264;SDS011;61493;51.008;14.088;2023-03-14T03:13:30;1.55;;;0.80;;
73264;SDS011;61493;51.008;14.088;2023-03-14T03:15:55;0.98;;;0.80;;
73264;SDS011;61493;51.008;14.088;2023-03-14T03:18:20;1.20;;;0.70;;
73264;SDS011;61493;51.008;14.088;2023-03-14T03:20:45;0.93;;;0.52;;
73264;SDS011;61493;51.008;14.088;2023-03-14T03:23:11;0.95;;;0.68;;
73264;SDS011;61493;51.008;14.088;2023-03-14T03:25:36;1.80;;;0.90;;
73264;SDS011;61493;51.008;14.088;2023-03-14T03:28:01;0.60;;;0.50;;
73264;SDS011;61493;51.008;14.088;2023-03-14T03:30:27;0.60;;;0.50;;
73264;SDS011;61493;51.008;14.088;2023-03-14T03:32:52;0.68;;;0.68;;
73264;SDS011;61493;51.008;14.088;2023-03-14T03:35:17;0.75;;;0.38;;
73264;SDS011;61493;51.008;14.088;2023-03-14T03:37:42;1.38;;;0.40;;
73264;SDS011;61493;51.008;14.088;2023-03-14T03:40:09;1.30;;;0.40;;
73264;SDS011;61493;51.008;14.088;2023-03-14T03:42:34;0.22;;;0.20;;
73264;SDS011;61493;51.008;14.088;2023-03-14T03:45:00;0.35;;;0.35;;
73264;SDS011;61493;51.008;14.088;2023-03-14T03:47:26;0.30;;;0.30;;
73264;SDS011;61493;51.008;14.088;2023-03-14T03:49:51;0.75;;;0.30;;
73264;SDS011;61493;51.008;14.088;2023-03-14T03:52:16;0.68;;;0.40;;
73264;SDS011;61493;51.008;14.088;2023-03-14T03:54:42;0.20;;;0.10;;
73264;SDS011;61493;51.008;14.088;2023-03-14T03:57:10;0.10;;;0.10;;
73264;SDS011;61493;51.008;14.088;2023-03-14T03:59:35;0.20;;;0.20;;
73264;SDS011;61493;51.008;14.088;2023-03-14T04:02:00;0.38;;;0.38;;
73264;SDS011;61493;51.008;14.088;2023-03-14T04:04:26;0.30;;;0.28;;
73264;SDS011;61493;51.008;14.088;2023-03-14T04:06:54;0.95;;;0.32;;
73264;SDS011;61493;51.008;14.088;2023-03-14T04:09:19;0.30;;;0.30;;
73264;SDS011;61493;51.008;14.088;2023-03-14T04:11:44;0.22;;;0.20;;
73264;SDS011;61493;51.008;14.088;2023-03-14T04:14:09;0.45;;;0.20;;
73264;SDS011;61493;51.008;14.088;2023-03-14T04:16:35;0.30;;;0.28;;
73264;SDS011;61493;51.008;14.088;2023-03-14T04:19:00;0.30;;;0.30;;
73264;SDS011;61493;51.008;14.088;2023-03-14T04:21:26;0.82;;;0.32;;
73264;SDS011;61493;51.008;14.088;2023-03-14T04:23:51;0.10;;;0.10;;
73264;SDS011;61493;51.008;14.088;2023-03-14T04:26:16;0.20;;;0.20;;
73264;SDS011;61493;51.008;14.088;2023-03-14T04:28:41;0.10;;;0.10;;
73264;SDS011;61493;51.008;14.088;2023-03-14T04:31:07;1.23;;;0.40;;
73264;SDS011;61493;51.008;14.088;2023-03-14T04:33:33;0.57;;;0.20;;
73264;SDS011;61493;51.008;14.088;2023-03-14T04:36:01;0.35;;;0.30;;
73264;SDS011;61493;51.008;14.088;2023-03-14T04:38:26;0.50;;;0.28;;
73264;SDS011;61493;51.008;14.088;2023-03-14T04:40:51;0.60;;;0.40;;
73264;SDS011;61493;51.008;14.088;2023-03-14T04:43:19;0.47;;;0.20;;
73264;SDS011;61493;51.008;14.088;2023-03-14T04:45:44;0.45;;;0.35;;
73264;SDS011;61493;51.008;14.088;2023-03-14T04:48:09;1.00;;;0.38;;
73264;SDS011;61493;51.008;14.088;2023-03-14T04:50:35;2.17;;;0.90;;
73264;SDS011;61493;51.008;14.088;2023-03-14T04:53:00;3.30;;;2.15;;
73264;SDS011;61493;51.008;14.088;2023-03-14T04:55:26;4.25;;;2.60;;
73264;SDS011;61493;51.008;14.088;2023-03-14T04:57:51;2.47;;;1.65;;
73264;SDS011;61493;51.008;14.088;2023-03-14T05:00:16;2.30;;;1.42;;
73264;SDS011;61493;51.008;14.088;2023-03-14T05:02:45;2.85;;;1.85;;
73264;SDS011;61493;51.008;14.088;2023-03-14T05:05:10;4.03;;;2.63;;
73264;SDS011;61493;51.008;14.088;2023-03-14T05:07:35;0.52;;;0.40;;
73264;SDS011;61493;51.008;14.088;2023-03-14T05:10:01;0.88;;;0.43;;
73264;SDS011;61493;51.008;14.088;2023-03-14T05:12:26;0.38;;;0.35;;
73264;SDS011;61493;51.008;14.088;2023-03-14T05:14:51;2.20;;;0.65;;
73264;SDS011;61493;51.008;14.088;2023-03-14T05:17:16;0.93;;;0.60;;
73264;SDS011;61493;51.008;14.088;2023-03-14T05:19:43;1.65;;;0.30;;
73264;SDS011;61493;51.008;14.088;2023-03-14T05:22:09;0.73;;;0.55;;
73264;SDS011;61493;51.008;14.088;2023-03-14T05:24:34;0.63;;;0.45;;
73264;SDS011;61493;51.008;14.088;2023-03-14T05:27:00;1.75;;;0.90;;
73264;SDS011;61493;51.008;14.088;2023-03-14T05:29:25;4.45;;;2.65;;
73264;SDS011;61493;51.008;14.088;2023-03-14T05:31:50;2.45;;;1.10;;
73264;SDS011;61493;51.008;14.088;2023-03-14T05:34:15;3.13;;;1.80;;
73264;SDS011;61493;51.008;14.088;2023-03-14T05:36:41;3.05;;;1.30;;
73264;SDS011;61493;51.008;14.088;2023-03-14T05:39:06;3.55;;;1.10;;
73264;SDS011;61493;51.008;14.088;2023-03-14T05:41:32;1.65;;;0.85;;
73264;SDS011;61493;51.008;14.088;2023-03-14T05:43:57;1.85;;;0.57;;
73264;SDS011;61493;51.008;14.088;2023-03-14T05:46:25;0.73;;;0.60;;
73264;SDS011;61493;51.008;14.088;2023-03-14T05:48:50;0.10;;;0.10;;
73264;SDS011;61493;51.008;14.088;2023-03-14T05:51:15;0.70;;;0.47;;
73264;SDS011;61493;51.008;14.088;2023-03-14T05:53:41;1.58;;;0.60;;
73264;SDS011;61493;51.008;14.088;2023-03-14T05:56:06;1.10;;;0.55;;
73264;SDS011;61493;51.008;14.088;2023-03-14T05:58:32;0.50;;;0.25;;
73264;SDS011;61493;51.008;14.088;2023-03-14T06:00:57;0.95;;;0.50;;
73264;SDS011;61493;51.008;14.088;2023-03-14T06:03:22;0.32;;;0.22;;
73264;SDS011;61493;51.008;14.088;2023-03-14T06:05:49;0.65;;;0.28;;
73264;SDS011;61493;51.008;14.088;2023-03-14T06:08:14;0.90;;;0.45;;
73264;SDS011;61493;51.008;14.088;2023-03-14T06:10:39;2.55;;;0.50;;
73264;SDS011;61493;51.008;14.088;2023-03-14T06:13:05;2.20;;;0.50;;
73264;SDS011;61493;51.008;14.088;2023-03-14T06:15:30;1.13;;;0.50;;
73264;SDS011;61493;51.008;14.088;2023-03-14T06:17:55;1.42;;;0.64;;
73264;SDS011;61493;51.008;14.088;2023-03-14T06:20:21;1.20;;;0.60;;
73264;SDS011;61493;51.008;14.088;2023-03-14T06:22:46;1.80;;;0.70;;
73264;SDS011;61493;51.008;14.088;2023-03-14T06:25:11;0.68;;;0.45;;
73264;SDS011;61493;51.008;14.088;2023-03-14T06:27:40;0.75;;;0.40;;
73264;SDS011;61493;51.008;14.088;2023-03-14T06:30:05;2.58;;;0.52;;
73264;SDS011;61493;51.008;14.088;2023-03-14T06:32:30;2.08;;;0.60;;
73264;SDS011;61493;51.008;14.088;2023-03-14T06:34:56;1.98;;;0.65;;
73264;SDS011;61493;51.008;14.088;2023-03-14T06:37:22;1.95;;;0.98;;
73264;SDS011;61493;51.008;14.088;2023-03-14T06:39:47;1.77;;;0.60;;
73264;SDS011;61493;51.008;14.088;2023-03-14T06:42:12;2.30;;;0.73;;
73264;SDS011;61493;51.008;14.088;2023-03-14T06:44:37;2.53;;;1.02;;
73264;SDS011;61493;51.008;14.088;2023-03-14T06:47:02;1.50;;;0.60;;
73264;SDS011;61493;51.008;14.088;2023-03-14T06:49:28;3.40;;;1.13;;
73264;SDS011;61493;51.008;14.088;2023-03-14T06:51:53;3.67;;;1.70;;
73264;SDS011;61493;51.008;14.088;2023-03-14T06:54:18;1.17;;;0.95;;
73264;SDS011;61493;51.008;14.088;2023-03-14T06:56:44;2.30;;;0.90;;
73264;SDS011;61493;51.008;14.088;2023-03-14T06:59:12;1.45;;;0.63;;
73264;SDS011;61493;51.008;14.088;2023-03-14T07:01:37;1.48;;;0.30;;
73264;SDS011;61493;51.008;14.088;2023-03-14T07:04:02;3.30;;;0.60;;
73264;SDS011;61493;51.008;14.088;2023-03-14T07:06:28;2.35;;;0.80;;
73264;SDS011;61493;51.008;14.088;2023-03-14T07:08:56;4.82;;;0.70;;
73264;SDS011;61493;51.008;14.088;2023-03-14T07:11:22;0.82;;;0.57;;
73264;SDS011;61493;51.008;14.088;2023-03-14T07:13:47;2.53;;;0.98;;
73264;SDS011;61493;51.008;14.088;2023-03-14T07:16:13;3.80;;;1.25;;
73264;SDS011;61493;51.008;14.088;2023-03-14T07:18:38;1.55;;;0.73;;
73264;SDS011;61493;51.008;14.088;2023-03-14T07:21:04;3.28;;;0.70;;
73264;SDS011;61493;51.008;14.088;2023-03-14T07:23:30;2.88;;;0.75;;
73264;SDS011;61493;51.008;14.088;2023-03-14T07:25:55;1.17;;;0.57;;
73264;SDS011;61493;51.008;14.088;2023-03-14T07:28:21;2.03;;;0.90;;
73264;SDS011;61493;51.008;14.088;2023-03-14T07:30:47;3.08;;;0.85;;
73264;SDS011;61493;51.008;14.088;2023-03-14T07:33:13;1.30;;;0.70;;
73264;SDS011;61493;51.008;14.088;2023-03-14T07:35:38;2.60;;;0.70;;
73264;SDS011;61493;51.008;14.088;2023-03-14T07:38:03;1.75;;;1.02;;
73264;SDS011;61493;51.008;14.088;2023-03-14T07:40:29;3.67;;;1.05;;
73264;SDS011;61493;51.008;14.088;2023-03-14T07:42:54;0.57;;;0.55;;
73264;SDS011;61493;51.008;14.088;2023-03-14T07:45:20;3.55;;;0.85;;
73264;SDS011;61493;51.008;14.088;2023-03-14T07:47:45;3.58;;;0.52;;
73264;SDS011;61493;51.008;14.088;2023-03-14T07:50:13;2.03;;;0.82;;
73264;SDS011;61493;51.008;14.088;2023-03-14T07:52:44;3.33;;;0.75;;
73264;SDS011;61493;51.008;14.088;2023-03-14T07:55:10;2.58;;;1.10;;
73264;SDS011;61493;51.008;14.088;2023-03-14T07:57:41;1.60;;;0.50;;
73264;SDS011;61493;51.008;14.088;2023-03-14T08:00:08;0.80;;;0.73;;
73264;SDS011;61493;51.008;14.088;2023-03-14T08:02:36;3.67;;;0.90;;
73264;SDS011;61493;51.008;14.088;2023-03-14T08:05:04;2.80;;;0.80;;
73264;SDS011;61493;51.008;14.088;2023-03-14T08:07:34;2.20;;;0.68;;
73264;SDS011;61493;51.008;14.088;2023-03-14T08:10:03;1.40;;;0.80;;
73264;SDS011;61493;51.008;14.088;2023-03-14T08:12:28;0.73;;;0.40;;
73264;SDS011;61493;51.008;14.088;2023-03-14T08:14:53;1.75;;;0.63;;
73264;SDS011;61493;51.008;14.088;2023-03-14T08:17:19;4.63;;;0.90;;
73264;SDS011;61493;51.008;14.088;2023-03-14T08:19:44;5.53;;;0.93;;
73264;SDS011;61493;51.008;14.088;2023-03-14T08:22:09;2.28;;;0.70;;
73264;SDS011;61493;51.008;14.088;2023-03-14T08:24:37;2.05;;;0.40;;
73264;SDS011;61493;51.008;14.088;2023-03-14T08:27:02;3.72;;;0.75;;
73264;SDS011;61493;51.008;14.088;2023-03-14T08:29:27;2.92;;;0.60;;
73264;SDS011;61493;51.008;14.088;2023-03-14T08:31:53;0.55;;;0.35;;
73264;SDS011;61493;51.008;14.088;2023-03-14T08:34:19;1.40;;;0.50;;
73264;SDS011;61493;51.008;14.088;2023-03-14T08:36:45;2.42;;;0.60;;
73264;SDS011;61493;51.008;14.088;2023-03-14T08:39:19;3.72;;;1.15;;
73264;SDS011;61493;51.008;14.088;2023-03-14T08:41:44;1.95;;;0.60;;
73264;SDS011;61493;51.008;14.088;2023-03-14T08:44:13;1.75;;;0.40;;
73264;SDS011;61493;51.008;14.088;2023-03-14T08:46:39;1.63;;;0.45;;
73264;SDS011;61493;51.008;14.088;2023-03-14T08:49:11;2.20;;;0.70;;
73264;SDS011;61493;51.008;14.088;2023-03-14T08:51:43;3.17;;;0.75;;
73264;SDS011;61493;51.008;14.088;2023-03-14T08:54:11;4.63;;;1.80;;
73264;SDS011;61493;51.008;14.088;2023-03-14T08:56:36;3.17;;;0.98;;
73264;SDS011;61493;51.008;14.088;2023-03-14T08:59:06;2.05;;;0.80;;
73264;SDS011;61493;51.008;14.088;2023-03-14T09:01:34;3.03;;;0.90;;
73264;SDS011;61493;51.008;14.088;2023-03-14T09:04:06;0.60;;;0.60;;
73264;SDS011;61493;51.008;14.088;2023-03-14T09:06:33;6.63;;;3.92;;
73264;SDS011;61493;51.008;14.088;2023-03-14T09:09:02;25.70;;;11.07;;
73264;SDS011;61493;51.008;14.088;2023-03-14T09:11:27;18.77;;;9.95;;
73264;SDS011;61493;51.008;14.088;2023-03-14T09:13:57;3.65;;;1.13;;
73264;SDS011;61493;51.008;14.088;2023-03-14T09:16:23;3.03;;;1.02;;
73264;SDS011;61493;51.008;14.088;2023-03-14T09:18:48;3.17;;;1.10;;
73264;SDS011;61493;51.008;14.088;2023-03-14T09:21:14;3.17;;;0.90;;
73264;SDS011;61493;51.008;14.088;2023-03-14T09:23:40;2.47;;;1.67;;
73264;SDS011;61493;51.008;14.088;2023-03-14T09:26:06;7.07;;;3.05;;
73264;SDS011;61493;51.008;14.088;2023-03-14T09:28:31;4.45;;;2.60;;
73264;SDS011;61493;51.008;14.088;2023-03-14T09:31:05;5.35;;;2.90;;
73264;SDS011;61493;51.008;14.088;2023-03-14T09:33:31;5.63;;;3.85;;
73264;SDS011;61493;51.008;14.088;2023-03-14T09:35:58;4.38;;;2.15;;
73264;SDS011;61493;51.008;14.088;2023-03-14T09:38:24;1.85;;;1.60;;
73264;SDS011;61493;51.008;14.088;2023-03-14T09:40:50;3.35;;;1.30;;
73264;SDS011;61493;51.008;14.088;2023-03-14T09:43:15;2.25;;;1.42;;
73264;SDS011;61493;51.008;14.088;2023-03-14T09:45:44;4.15;;;1.48;;
73264;SDS011;61493;51.008;14.088;2023-03-14T09:48:12;1.38;;;0.90;;
73264;SDS011;61493;51.008;14.088;2023-03-14T09:50:43;2.13;;;1.00;;
73264;SDS011;61493;51.008;14.088;2023-03-14T09:53:11;2.47;;;1.00;;
73264;SDS011;61493;51.008;14.088;2023-03-14T09:55:38;2.53;;;1.02;;
73264;SDS011;61493;51.008;14.088;2023-03-14T09:58:05;2.47;;;1.20;;
73264;SDS011;61493;51.008;14.088;2023-03-14T10:00:33;2.03;;;1.35;;
73264;SDS011;61493;51.008;14.088;2023-03-14T10:03:09;2.42;;;1.45;;
73264;SDS011;61493;51.008;14.088;2023-03-14T10:05:41;3.00;;;1.40;;
73264;SDS011;61493;51.008;14.088;2023-03-14T10:08:10;1.67;;;1.38;;
73264;SDS011;61493;51.008;14.088;2023-03-14T10:10:35;2.50;;;1.60;;
73264;SDS011;61493;51.008;14.088;2023-03-14T10:16:01;4.88;;;2.85;;
73264;SDS011;61493;51.008;14.088;2023-03-14T10:18:28;11.98;;;5.35;;
73264;SDS011;61493;51.008;14.088;2023-03-14T10:21:36;18.17;;;10.05;;
73264;SDS011;61493;51.008;14.088;2023-03-14T10:23:43;8.27;;;3.88;;
73264;SDS011;61493;51.008;14.088;2023-03-14T10:26:13;9.32;;;4.68;;
73264;SDS011;61493;51.008;14.088;2023-03-14T10:31:04;30.42;;;15.55;;
73264;SDS011;61493;51.008;14.088;2023-03-14T10:35:59;3.85;;;2.65;;
73264;SDS011;61493;51.008;14.088;2023-03-14T10:38:26;14.20;;;6.90;;
73264;SDS011;61493;51.008;14.088;2023-03-14T10:40:51;22.48;;;11.02;;
73264;SDS011;61493;51.008;14.088;2023-03-14T10:43:18;4.30;;;2.55;;
73264;SDS011;61493;51.008;14.088;2023-03-14T10:45:54;15.25;;;7.78;;
73264;SDS011;61493;51.008;14.088;2023-03-14T10:48:30;7.45;;;4.05;;
73264;SDS011;61493;51.008;14.088;2023-03-14T10:50:57;8.50;;;3.65;;
73264;SDS011;61493;51.008;14.088;2023-03-14T10:53:23;7.90;;;4.45;;
73264;SDS011;61493;51.008;14.088;2023-03-14T10:55:49;6.00;;;3.78;;
73264;SDS011;61493;51.008;14.088;2023-03-14T10:58:27;5.35;;;3.28;;
73264;SDS011;61493;51.008;14.088;2023-03-14T11:00:59;9.55;;;5.50;;
73264;SDS011;61493;51.008;14.088;2023-03-14T11:03:26;8.23;;;6.32;;
73264;SDS011;61493;51.008;14.088;2023-03-14T11:05:57;9.70;;;6.70;;
73264;SDS011;61493;51.008;14.088;2023-03-14T11:08:28;8.10;;;3.83;;
73264;SDS011;61493;51.008;14.088;2023-03-14T11:11:30;5.10;;;3.45;;
73264;SDS011;61493;51.008;14.088;2023-03-14T11:14:07;1.90;;;1.52;;
73264;SDS011;61493;51.008;14.088;2023-03-14T11:19:17;3.50;;;2.13;;
73264;SDS011;61493;51.008;14.088;2023-03-14T11:34:56;2.78;;;1.70;;
73264;SDS011;61493;51.008;14.088;2023-03-14T11:37:34;3.78;;;1.55;;
73264;SDS011;61493;51.008;14.088;2023-03-14T11:42:35;3.00;;;1.40;;
73264;SDS011;61493;51.008;14.088;2023-03-14T11:45:00;3.97;;;1.83;;
73264;SDS011;61493;51.008;14.088;2023-03-14T11:49:59;3.30;;;1.48;;
73264;SDS011;61493;51.008;14.088;2023-03-14T11:52:32;3.70;;;1.20;;
73264;SDS011;61493;51.008;14.088;2023-03-14T11:55:02;2.20;;;1.27;;
73264;SDS011;61493;51.008;14.088;2023-03-14T11:57:30;5.50;;;1.30;;
73264;SDS011;61493;51.008;14.088;2023-03-14T11:59:56;5.68;;;1.55;;
73264;SDS011;61493;51.008;14.088;2023-03-14T12:02:27;2.40;;;1.05;;
73264;SDS011;61493;51.008;14.088;2023-03-14T12:05:19;2.45;;;1.15;;
73264;SDS011;61493;51.008;14.088;2023-03-14T12:07:57;2.47;;;1.10;;
73264;SDS011;61493;51.008;14.088;2023-03-14T12:10:28;3.08;;;1.15;;
73264;SDS011;61493;51.008;14.088;2023-03-14T12:12:54;1.33;;;1.00;;
73264;SDS011;61493;51.008;14.088;2023-03-14T12:15:20;1.38;;;0.95;;
73264;SDS011;61493;51.008;14.088;2023-03-14T12:17:47;2.83;;;1.17;;
73264;SDS011;61493;51.008;14.088;2023-03-14T12:20:22;1.65;;;1.02;;
73264;SDS011;61493;51.008;14.088;2023-03-14T12:22:49;1.52;;;0.85;;
73264;SDS011;61493;51.008;14.088;2023-03-14T12:25:24;2.20;;;1.00;;
73264;SDS011;61493;51.008;14.088;2023-03-14T12:30:29;5.90;;;1.23;;
73264;SDS011;61493;51.008;14.088;2023-03-14T12:35:43;1.52;;;1.00;;
73264;SDS011;61493;51.008;14.088;2023-03-14T12:38:16;1.83;;;1.02;;
73264;SDS011;61493;51.008;14.088;2023-03-14T12:41:02;2.47;;;0.98;;
73264;SDS011;61493;51.008;14.088;2023-03-14T12:43:31;1.63;;;0.85;;
73264;SDS011;61493;51.008;14.088;2023-03-14T12:48:32;2.40;;;1.08;;
73264;SDS011;61493;51.008;14.088;2023-03-14T12:51:05;2.25;;;1.05;;
73264;SDS011;61493;51.008;14.088;2023-03-14T12:56:21;1.13;;;0.90;;
73264;SDS011;61493;51.008;14.088;2023-03-14T12:58:56;2.22;;;0.90;;
73264;SDS011;61493;51.008;14.088;2023-03-14T13:01:25;2.80;;;0.90;;
73264;SDS011;61493;51.008;14.088;2023-03-14T13:03:52;1.25;;;0.63;;
73264;SDS011;61493;51.008;14.088;2023-03-14T13:12:01;1.65;;;1.00;;
73264;SDS011;61493;51.008;14.088;2023-03-14T13:14:28;1.42;;;0.60;;
73264;SDS011;61493;51.008;14.088;2023-03-14T13:16:53;2.83;;;1.00;;
73264;SDS011;61493;51.008;14.088;2023-03-14T13:19:23;1.80;;;0.75;;
73264;SDS011;61493;51.008;14.088;2023-03-14T13:22:01;1.13;;;0.70;;
73264;SDS011;61493;51.008;14.088;2023-03-14T13:24:27;0.80;;;0.80;;
73264;SDS011;61493;51.008;14.088;2023-03-14T13:26:53;1.40;;;0.60;;
73264;SDS011;61493;51.008;14.088;2023-03-14T13:31:45;2.13;;;0.50;;
73264;SDS011;61493;51.008;14.088;2023-03-14T13:34:13;1.05;;;0.50;;
73264;SDS011;61493;51.008;14.088;2023-03-14T13:36:38;1.17;;;0.43;;
73264;SDS011;61493;51.008;14.088;2023-03-14T13:39:06;1.05;;;0.45;;
73264;SDS011;61493;51.008;14.088;2023-03-14T13:41:36;1.48;;;0.40;;
73264;SDS011;61493;51.008;14.088;2023-03-14T13:44:09;0.60;;;0.35;;
73264;SDS011;61493;51.008;14.088;2023-03-14T13:46:38;2.08;;;0.68;;
73264;SDS011;61493;51.008;14.088;2023-03-14T13:49:10;0.57;;;0.50;;
73264;SDS011;61493;51.008;14.088;2023-03-14T13:51:38;1.23;;;0.60;;
73264;SDS011;61493;51.008;14.088;2023-03-14T13:54:11;0.82;;;0.38;;
73264;SDS011;61493;51.008;14.088;2023-03-14T13:56:37;0.73;;;0.30;;
73264;SDS011;61493;51.008;14.088;2023-03-14T13:59:03;0.52;;;0.40;;
73264;SDS011;61493;51.008;14.088;2023-03-14T14:01:34;1.25;;;0.43;;
73264;SDS011;61493;51.008;14.088;2023-03-14T14:04:07;0.50;;;0.25;;
73264;SDS011;61493;51.008;14.088;2023-03-14T14:11:55;0.15;;;0.15;;
73264;SDS011;61493;51.008;14.088;2023-03-14T14:14:23;0.40;;;0.30;;
73264;SDS011;61493;51.008;14.088;2023-03-14T14:16:50;0.22;;;0.10;;
73264;SDS011;61493;51.008;14.088;2023-03-14T14:19:15;1.23;;;0.80;;
73264;SDS011;61493;51.008;14.088;2023-03-14T14:21:45;1.00;;;0.50;;
73264;SDS011;61493;51.008;14.088;2023-03-14T14:24:14;12.90;;;6.45;;
73264;SDS011;61493;51.008;14.088;2023-03-14T14:26:46;3.95;;;1.65;;
73264;SDS011;61493;51.008;14.088;2023-03-14T14:29:20;2.53;;;0.90;;
73264;SDS011;61493;51.008;14.088;2023-03-14T14:31:58;7.93;;;4.43;;
73264;SDS011;61493;51.008;14.088;2023-03-14T14:34:24;4.43;;;2.40;;
73264;SDS011;61493;51.008;14.088;2023-03-14T14:36:50;10.40;;;5.13;;
73264;SDS011;61493;51.008;14.088;2023-03-14T14:39:20;1.50;;;0.77;;
73264;SDS011;61493;51.008;14.088;2023-03-14T14:41:50;0.50;;;0.50;;
73264;SDS011;61493;51.008;14.088;2023-03-14T14:44:17;1.02;;;0.70;;
73264;SDS011;61493;51.008;14.088;2023-03-14T14:46:43;1.92;;;0.43;;
73264;SDS011;61493;51.008;14.088;2023-03-14T14:49:09;2.22;;;0.28;;
73264;SDS011;61493;51.008;14.088;2023-03-14T14:51:47;0.10;;;0.10;;
73264;SDS011;61493;51.008;14.088;2023-03-14T14:54:17;0.75;;;0.68;;
73264;SDS011;61493;51.008;14.088;2023-03-14T14:57:02;0.28;;;0.10;;
73264;SDS011;61493;51.008;14.088;2023-03-14T14:59:27;0.20;;;0.20;;
73264;SDS011;61493;51.008;14.088;2023-03-14T15:04:23;0.20;;;0.20;;
73264;SDS011;61493;51.008;14.088;2023-03-14T15:06:48;0.50;;;0.40;;
73264;SDS011;61493;51.008;14.088;2023-03-14T15:09:14;0.47;;;0.20;;
73264;SDS011;61493;51.008;14.088;2023-03-14T15:11:41;0.40;;;0.40;;
73264;SDS011;61493;51.008;14.088;2023-03-14T15:14:06;0.25;;;0.25;;
73264;SDS011;61493;51.008;14.088;2023-03-14T15:16:31;1.67;;;0.30;;
73264;SDS011;61493;51.008;14.088;2023-03-14T15:18:58;1.30;;;0.20;;
73264;SDS011;61493;51.008;14.088;2023-03-14T15:21:24;1.27;;;0.10;;
73264;SDS011;61493;51.008;14.088;2023-03-14T15:23:50;1.20;;;0.95;;
73264;SDS011;61493;51.008;14.088;2023-03-14T15:26:19;0.68;;;0.40;;
73264;SDS011;61493;51.008;14.088;2023-03-14T15:28:44;1.05;;;0.63;;
73264;SDS011;61493;51.008;14.088;2023-03-14T15:31:11;0.73;;;0.50;;
73264;SDS011;61493;51.008;14.088;2023-03-14T15:33:37;0.38;;;0.30;;
73264;SDS011;61493;51.008;14.088;2023-03-14T15:36:03;1.20;;;1.13;;